sensor_id;sensor_type;location;lat;lon;timestamp;temperature;humidity
24560;DHT22;12727;49.934;8.656;2023-03-23T00:00:08;14.60;79.70
24560;DHT22;12727;49.934;8.656;2023-03-23T00:02:36;14.60;79.80
24560;DHT22;12727;49.934;8.656;2023-03-23T00:05:06;14.50;80.00
24560;DHT22;12727;49.934;8.656;2023-03-23T00:07:33;14.50;80.30
24560;DHT22;12727;49.934;8.656;2023-03-23T00:09:59;14.50;80.40
24560;DHT22;12727;49.934;8.656;2023-03-23T00:12:29;14.50;80.80
24560;DHT22;12727;49.934;8.656;2023-03-23T00:15:04;14.50;81.00
24560;DHT22;12727;49.934;8.656;2023-03-23T00:17:30;14.40;81.10
24560;DHT22;12727;49.934;8.656;2023-03-23T00:19:58;14.50;81.40
24560;DHT22;12727;49.934;8.656;2023-03-23T00:22:28;14.40;81.30
24560;DHT22;12727;49.934;8.656;2023-03-23T00:24:54;14.40;81.50
24560;DHT22;12727;49.934;8.656;2023-03-23T00:27:21;14.30;81.70
24560;DHT22;12727;49.934;8.656;2023-03-23T00:29:48;14.40;82.10
24560;DHT22;12727;49.934;8.656;2023-03-23T00:32:18;14.30;82.20
24560;DHT22;12727;49.934;8.656;2023-03-23T00:34:46;14.40;82.50
24560;DHT22;12727;49.934;8.656;2023-03-23T00:37:14;14.30;82.70
24560;DHT22;12727;49.934;8.656;2023-03-23T00:39:42;14.40;82.90
24560;DHT22;12727;49.934;8.656;2023-03-23T00:42:10;14.40;83.30
24560;DHT22;12727;49.934;8.656;2023-03-23T00:44:38;14.30;83.30
24560;DHT22;12727;49.934;8.656;2023-03-23T00:47:05;14.30;83.50
24560;DHT22;12727;49.934;8.656;2023-03-23T00:49:31;14.30;84.50
24560;DHT22;12727;49.934;8.656;2023-03-23T00:52:00;14.30;84.30
24560;DHT22;12727;49.934;8.656;2023-03-23T00:54:26;14.20;84.50
24560;DHT22;12727;49.934;8.656;2023-03-23T00:56:52;14.30;84.60
24560;DHT22;12727;49.934;8.656;2023-03-23T00:59:18;14.30;84.70
24560;DHT22;12727;49.934;8.656;2023-03-23T01:01:44;14.30;84.70
24560;DHT22;12727;49.934;8.656;2023-03-23T01:04:10;14.30;84.70
24560;DHT22;12727;49.934;8.656;2023-03-23T01:06:38;14.40;84.50
24560;DHT22;12727;49.934;8.656;2023-03-23T01:09:06;14.40;84.70
24560;DHT22;12727;49.934;8.656;2023-03-23T01:11:32;14.30;84.80
24560;DHT22;12727;49.934;8.656;2023-03-23T01:13:58;14.40;84.70
24560;DHT22;12727;49.934;8.656;2023-03-23T01:16:25;14.30;84.80
24560;DHT22;12727;49.934;8.656;2023-03-23T01:18:50;14.40;85.00
24560;DHT22;12727;49.934;8.656;2023-03-23T01:21:18;14.30;85.10
24560;DHT22;12727;49.934;8.656;2023-03-23T01:23:44;14.30;85.20
24560;DHT22;12727;49.934;8.656;2023-03-23T01:26:15;14.30;85.30
24560;DHT22;12727;49.934;8.656;2023-03-23T01:28:41;14.30;85.40
24560;DHT22;12727;49.934;8.656;2023-03-23T01:31:11;14.30;85.20
24560;DHT22;12727;49.934;8.656;2023-03-23T01:33:38;14.30;85.30
24560;DHT22;12727;49.934;8.656;2023-03-23T01:36:05;14.30;85.10
24560;DHT22;12727;49.934;8.656;2023-03-23T01:38:32;14.20;85.40
24560;DHT22;12727;49.934;8.656;2023-03-23T01:40:58;14.20;85.60
24560;DHT22;12727;49.934;8.656;2023-03-23T01:43:24;14.20;85.50
24560;DHT22;12727;49.934;8.656;2023-03-23T01:45:50;14.30;85.50
24560;DHT22;12727;49.934;8.656;2023-03-23T01:48:29;14.30;85.70
24560;DHT22;12727;49.934;8.656;2023-03-23T01:50:59;14.20;85.60
24560;DHT22;12727;49.934;8.656;2023-03-23T01:53:44;14.20;85.80
24560;DHT22;12727;49.934;8.656;2023-03-23T01:56:12;14.20;85.60
24560;DHT22;12727;49.934;8.656;2023-03-23T01:58:39;14.30;85.80
24560;DHT22;12727;49.934;8.656;2023-03-23T02:01:09;14.20;85.40
24560;DHT22;12727;49.934;8.656;2023-03-23T02:03:39;14.20;85.50
24560;DHT22;12727;49.934;8.656;2023-03-23T02:06:07;14.20;86.90
24560;DHT22;12727;49.934;8.656;2023-03-23T02:08:33;14.20;87.80
24560;DHT22;12727;49.934;8.656;2023-03-23T02:10:59;14.10;87.80
24560;DHT22;12727;49.934;8.656;2023-03-23T02:13:26;14.00;88.60
24560;DHT22;12727;49.934;8.656;2023-03-23T02:16:03;13.90;88.20
24560;DHT22;12727;49.934;8.656;2023-03-23T02:27:39;13.70;89.10
24560;DHT22;12727;49.934;8.656;2023-03-23T02:30:30;13.60;89.10
24560;DHT22;12727;49.934;8.656;2023-03-23T02:35:44;13.50;89.40
24560;DHT22;12727;49.934;8.656;2023-03-23T02:38:18;13.50;89.20
24560;DHT22;12727;49.934;8.656;2023-03-23T02:40:47;13.50;89.90
24560;DHT22;12727;49.934;8.656;2023-03-23T02:43:19;13.60;90.10
24560;DHT22;12727;49.934;8.656;2023-03-23T02:45:46;13.60;90.20
24560;DHT22;12727;49.934;8.656;2023-03-23T02:48:14;13.60;90.20
24560;DHT22;12727;49.934;8.656;2023-03-23T02:50:46;13.60;90.20
24560;DHT22;12727;49.934;8.656;2023-03-23T02:53:14;13.60;90.20
24560;DHT22;12727;49.934;8.656;2023-03-23T02:55:42;13.60;90.10
24560;DHT22;12727;49.934;8.656;2023-03-23T02:58:09;13.60;90.80
24560;DHT22;12727;49.934;8.656;2023-03-23T03:00:35;13.60;91.20
24560;DHT22;12727;49.934;8.656;2023-03-23T03:03:03;13.50;91.70
24560;DHT22;12727;49.934;8.656;2023-03-23T03:10:56;13.40;92.40
24560;DHT22;12727;49.934;8.656;2023-03-23T03:16:01;13.30;93.10
24560;DHT22;12727;49.934;8.656;2023-03-23T03:18:34;13.20;93.50
24560;DHT22;12727;49.934;8.656;2023-03-23T03:21:07;13.10;93.70
24560;DHT22;12727;49.934;8.656;2023-03-23T03:23:36;13.10;93.80
24560;DHT22;12727;49.934;8.656;2023-03-23T03:26:03;13.10;93.70
24560;DHT22;12727;49.934;8.656;2023-03-23T03:28:32;13.10;93.70
24560;DHT22;12727;49.934;8.656;2023-03-23T03:31:00;13.20;93.70
24560;DHT22;12727;49.934;8.656;2023-03-23T03:33:27;13.20;93.70
24560;DHT22;12727;49.934;8.656;2023-03-23T03:35:57;13.20;93.60
24560;DHT22;12727;49.934;8.656;2023-03-23T03:38:26;13.30;93.70
24560;DHT22;12727;49.934;8.656;2023-03-23T03:40:52;13.30;93.60
24560;DHT22;12727;49.934;8.656;2023-03-23T03:43:18;13.30;93.30
24560;DHT22;12727;49.934;8.656;2023-03-23T03:45:44;13.30;93.60
24560;DHT22;12727;49.934;8.656;2023-03-23T03:48:10;13.30;93.70
24560;DHT22;12727;49.934;8.656;2023-03-23T03:50:36;13.30;93.70
24560;DHT22;12727;49.934;8.656;2023-03-23T03:53:02;13.30;93.60
24560;DHT22;12727;49.934;8.656;2023-03-23T03:55:28;13.30;93.80
24560;DHT22;12727;49.934;8.656;2023-03-23T03:57:54;13.30;93.80
24560;DHT22;12727;49.934;8.656;2023-03-23T04:00:20;13.30;93.80
24560;DHT22;12727;49.934;8.656;2023-03-23T04:02:48;13.30;93.70
24560;DHT22;12727;49.934;8.656;2023-03-23T04:05:17;13.30;93.90
24560;DHT22;12727;49.934;8.656;2023-03-23T04:07:44;13.30;94.20
24560;DHT22;12727;49.934;8.656;2023-03-23T04:10:11;13.20;94.30
24560;DHT22;12727;49.934;8.656;2023-03-23T04:12:38;13.30;94.50
24560;DHT22;12727;49.934;8.656;2023-03-23T04:15:06;13.20;94.30
24560;DHT22;12727;49.934;8.656;2023-03-23T04:17:33;13.20;94.20
24560;DHT22;12727;49.934;8.656;2023-03-23T04:19:59;13.20;94.50
24560;DHT22;12727;49.934;8.656;2023-03-23T04:22:26;13.20;94.70
24560;DHT22;12727;49.934;8.656;2023-03-23T04:24:56;13.20;94.70
24560;DHT22;12727;49.934;8.656;2023-03-23T04:27:24;13.20;94.30
24560;DHT22;12727;49.934;8.656;2023-03-23T04:29:50;13.20;94.40
24560;DHT22;12727;49.934;8.656;2023-03-23T04:32:15;13.20;94.40
24560;DHT22;12727;49.934;8.656;2023-03-23T04:34:43;13.20;94.70
24560;DHT22;12727;49.934;8.656;2023-03-23T04:37:09;13.20;94.80
24560;DHT22;12727;49.934;8.656;2023-03-23T04:39:35;13.10;95.00
24560;DHT22;12727;49.934;8.656;2023-03-23T04:42:01;13.10;94.60
24560;DHT22;12727;49.934;8.656;2023-03-23T04:44:27;13.20;94.70
24560;DHT22;12727;49.934;8.656;2023-03-23T04:46:53;13.20;94.90
24560;DHT22;12727;49.934;8.656;2023-03-23T04:49:19;13.20;95.00
24560;DHT22;12727;49.934;8.656;2023-03-23T04:51:48;13.10;94.90
24560;DHT22;12727;49.934;8.656;2023-03-23T04:54:15;13.00;95.00
24560;DHT22;12727;49.934;8.656;2023-03-23T04:56:41;13.00;95.30
24560;DHT22;12727;49.934;8.656;2023-03-23T04:59:07;13.00;95.60
24560;DHT22;12727;49.934;8.656;2023-03-23T05:01:33;12.90;95.70
24560;DHT22;12727;49.934;8.656;2023-03-23T05:04:02;12.90;95.90
24560;DHT22;12727;49.934;8.656;2023-03-23T05:06:28;12.90;96.00
24560;DHT22;12727;49.934;8.656;2023-03-23T05:08:53;12.80;95.70
24560;DHT22;12727;49.934;8.656;2023-03-23T05:11:19;12.80;96.30
24560;DHT22;12727;49.934;8.656;2023-03-23T05:13:45;12.80;96.20
24560;DHT22;12727;49.934;8.656;2023-03-23T05:16:10;12.90;96.50
24560;DHT22;12727;49.934;8.656;2023-03-23T05:18:36;12.90;96.30
24560;DHT22;12727;49.934;8.656;2023-03-23T05:21:02;12.90;96.20
24560;DHT22;12727;49.934;8.656;2023-03-23T05:23:28;13.00;95.80
24560;DHT22;12727;49.934;8.656;2023-03-23T05:25:57;13.00;96.10
24560;DHT22;12727;49.934;8.656;2023-03-23T05:28:26;13.10;96.50
24560;DHT22;12727;49.934;8.656;2023-03-23T05:30:52;13.20;96.20
24560;DHT22;12727;49.934;8.656;2023-03-23T05:33:19;13.20;96.40
24560;DHT22;12727;49.934;8.656;2023-03-23T05:35:46;13.30;96.20
24560;DHT22;12727;49.934;8.656;2023-03-23T05:38:13;13.30;96.00
24560;DHT22;12727;49.934;8.656;2023-03-23T05:40:40;13.30;96.00
24560;DHT22;12727;49.934;8.656;2023-03-23T05:43:07;13.30;95.90
24560;DHT22;12727;49.934;8.656;2023-03-23T05:45:33;13.30;96.20
24560;DHT22;12727;49.934;8.656;2023-03-23T05:47:59;13.20;96.70
24560;DHT22;12727;49.934;8.656;2023-03-23T05:50:25;13.20;97.10
24560;DHT22;12727;49.934;8.656;2023-03-23T05:52:50;13.20;97.30
24560;DHT22;12727;49.934;8.656;2023-03-23T05:55:16;13.10;97.90
24560;DHT22;12727;49.934;8.656;2023-03-23T05:57:42;13.10;98.20
24560;DHT22;12727;49.934;8.656;2023-03-23T06:00:08;13.10;98.70
24560;DHT22;12727;49.934;8.656;2023-03-23T06:02:36;13.10;99.60
24560;DHT22;12727;49.934;8.656;2023-03-23T06:05:02;13.10;99.90
24560;DHT22;12727;49.934;8.656;2023-03-23T06:07:28;12.90;99.90
24560;DHT22;12727;49.934;8.656;2023-03-23T06:09:54;12.90;99.90
24560;DHT22;12727;49.934;8.656;2023-03-23T06:12:19;12.80;99.90
24560;DHT22;12727;49.934;8.656;2023-03-23T06:14:46;12.80;99.90
24560;DHT22;12727;49.934;8.656;2023-03-23T06:17:12;12.70;99.90
24560;DHT22;12727;49.934;8.656;2023-03-23T06:19:38;12.70;99.90
24560;DHT22;12727;49.934;8.656;2023-03-23T06:22:04;12.70;99.90
24560;DHT22;12727;49.934;8.656;2023-03-23T06:24:30;12.70;99.90
24560;DHT22;12727;49.934;8.656;2023-03-23T06:26:57;12.70;99.90
24560;DHT22;12727;49.934;8.656;2023-03-23T06:29:23;12.60;99.90
24560;DHT22;12727;49.934;8.656;2023-03-23T06:31:52;12.60;99.90
24560;DHT22;12727;49.934;8.656;2023-03-23T06:34:19;12.50;99.90
24560;DHT22;12727;49.934;8.656;2023-03-23T06:36:45;12.60;99.90
24560;DHT22;12727;49.934;8.656;2023-03-23T06:39:12;12.60;99.90
24560;DHT22;12727;49.934;8.656;2023-03-23T06:41:39;12.50;99.90
24560;DHT22;12727;49.934;8.656;2023-03-23T06:44:05;12.50;99.90
24560;DHT22;12727;49.934;8.656;2023-03-23T06:46:31;12.40;99.90
24560;DHT22;12727;49.934;8.656;2023-03-23T06:48:57;12.30;99.90
24560;DHT22;12727;49.934;8.656;2023-03-23T06:51:23;12.30;99.90
24560;DHT22;12727;49.934;8.656;2023-03-23T06:53:49;12.30;99.90
24560;DHT22;12727;49.934;8.656;2023-03-23T06:56:15;12.30;99.90
24560;DHT22;12727;49.934;8.656;2023-03-23T06:58:41;12.30;99.90
24560;DHT22;12727;49.934;8.656;2023-03-23T07:01:07;12.30;99.90
24560;DHT22;12727;49.934;8.656;2023-03-23T07:03:33;12.40;99.90
24560;DHT22;12727;49.934;8.656;2023-03-23T07:05:59;12.40;99.90
24560;DHT22;12727;49.934;8.656;2023-03-23T07:08:25;12.50;99.90
24560;DHT22;12727;49.934;8.656;2023-03-23T07:10:52;12.40;99.90
24560;DHT22;12727;49.934;8.656;2023-03-23T07:13:19;12.50;99.90
24560;DHT22;12727;49.934;8.656;2023-03-23T07:15:45;12.50;99.90
24560;DHT22;12727;49.934;8.656;2023-03-23T07:18:10;12.40;99.90
24560;DHT22;12727;49.934;8.656;2023-03-23T07:20:36;12.50;99.90
24560;DHT22;12727;49.934;8.656;2023-03-23T07:23:03;12.50;99.90
24560;DHT22;12727;49.934;8.656;2023-03-23T07:25:32;12.60;99.90
24560;DHT22;12727;49.934;8.656;2023-03-23T07:27:59;12.60;99.90
24560;DHT22;12727;49.934;8.656;2023-03-23T07:30:25;12.70;99.90
24560;DHT22;12727;49.934;8.656;2023-03-23T07:32:51;12.60;99.90
24560;DHT22;12727;49.934;8.656;2023-03-23T07:35:17;12.60;99.90
24560;DHT22;12727;49.934;8.656;2023-03-23T07:37:42;12.60;99.90
24560;DHT22;12727;49.934;8.656;2023-03-23T07:40:09;12.50;99.90
24560;DHT22;12727;49.934;8.656;2023-03-23T07:42:41;12.60;99.90
24560;DHT22;12727;49.934;8.656;2023-03-23T07:45:07;12.50;99.90
24560;DHT22;12727;49.934;8.656;2023-03-23T07:47:33;12.50;99.90
24560;DHT22;12727;49.934;8.656;2023-03-23T07:49:58;12.50;99.90
24560;DHT22;12727;49.934;8.656;2023-03-23T07:52:24;12.50;99.90
24560;DHT22;12727;49.934;8.656;2023-03-23T07:54:49;12.50;99.90
24560;DHT22;12727;49.934;8.656;2023-03-23T07:57:15;12.50;99.90
24560;DHT22;12727;49.934;8.656;2023-03-23T07:59:41;12.50;99.90
24560;DHT22;12727;49.934;8.656;2023-03-23T08:02:08;12.60;99.90
24560;DHT22;12727;49.934;8.656;2023-03-23T08:04:35;12.60;99.90
24560;DHT22;12727;49.934;8.656;2023-03-23T08:07:03;12.70;99.90
24560;DHT22;12727;49.934;8.656;2023-03-23T08:09:30;12.70;99.90
24560;DHT22;12727;49.934;8.656;2023-03-23T08:11:55;12.70;99.90
24560;DHT22;12727;49.934;8.656;2023-03-23T08:14:22;12.80;99.90
24560;DHT22;12727;49.934;8.656;2023-03-23T08:16:48;12.80;99.90
24560;DHT22;12727;49.934;8.656;2023-03-23T08:19:14;12.70;99.90
24560;DHT22;12727;49.934;8.656;2023-03-23T08:21:40;12.80;99.90
24560;DHT22;12727;49.934;8.656;2023-03-23T08:24:06;12.80;99.90
24560;DHT22;12727;49.934;8.656;2023-03-23T08:26:31;12.80;99.90
24560;DHT22;12727;49.934;8.656;2023-03-23T08:28:57;12.90;99.90
24560;DHT22;12727;49.934;8.656;2023-03-23T08:31:23;12.90;99.90
24560;DHT22;12727;49.934;8.656;2023-03-23T08:33:49;12.80;99.90
24560;DHT22;12727;49.934;8.656;2023-03-23T08:36:15;12.80;99.90
24560;DHT22;12727;49.934;8.656;2023-03-23T08:38:40;12.80;99.90
24560;DHT22;12727;49.934;8.656;2023-03-23T08:41:06;12.80;99.90
24560;DHT22;12727;49.934;8.656;2023-03-23T08:43:33;12.70;99.90
24560;DHT22;12727;49.934;8.656;2023-03-23T08:45:59;12.80;99.90
24560;DHT22;12727;49.934;8.656;2023-03-23T08:48:26;12.80;99.90
24560;DHT22;12727;49.934;8.656;2023-03-23T08:50:53;12.80;99.90
24560;DHT22;12727;49.934;8.656;2023-03-23T08:53:19;12.80;99.90
24560;DHT22;12727;49.934;8.656;2023-03-23T08:55:47;12.80;99.90
24560;DHT22;12727;49.934;8.656;2023-03-23T08:58:12;12.80;99.90
24560;DHT22;12727;49.934;8.656;2023-03-23T09:00:38;12.90;99.90
24560;DHT22;12727;49.934;8.656;2023-03-23T09:03:04;12.90;99.90
24560;DHT22;12727;49.934;8.656;2023-03-23T09:05:30;12.90;99.90
24560;DHT22;12727;49.934;8.656;2023-03-23T09:07:57;13.00;99.90
24560;DHT22;12727;49.934;8.656;2023-03-23T09:10:27;13.10;99.90
24560;DHT22;12727;49.934;8.656;2023-03-23T09:12:54;13.10;99.90
24560;DHT22;12727;49.934;8.656;2023-03-23T09:15:20;13.10;99.90
24560;DHT22;12727;49.934;8.656;2023-03-23T09:17:48;13.20;99.90
24560;DHT22;12727;49.934;8.656;2023-03-23T09:20:19;13.30;99.90
24560;DHT22;12727;49.934;8.656;2023-03-23T09:22:48;13.30;99.90
24560;DHT22;12727;49.934;8.656;2023-03-23T09:25:16;13.40;99.90
24560;DHT22;12727;49.934;8.656;2023-03-23T09:27:45;13.40;99.90
24560;DHT22;12727;49.934;8.656;2023-03-23T09:30:13;13.50;99.90
24560;DHT22;12727;49.934;8.656;2023-03-23T09:32:40;13.60;99.90
24560;DHT22;12727;49.934;8.656;2023-03-23T09:35:08;13.70;99.90
24560;DHT22;12727;49.934;8.656;2023-03-23T09:37:35;13.80;99.90
24560;DHT22;12727;49.934;8.656;2023-03-23T09:40:03;13.90;99.90
24560;DHT22;12727;49.934;8.656;2023-03-23T09:42:37;13.90;99.90
24560;DHT22;12727;49.934;8.656;2023-03-23T09:48:21;14.10;99.90
24560;DHT22;12727;49.934;8.656;2023-03-23T09:50:56;14.40;99.90
24560;DHT22;12727;49.934;8.656;2023-03-23T09:53:33;14.80;99.90
24560;DHT22;12727;49.934;8.656;2023-03-23T09:56:02;14.90;99.90
24560;DHT22;12727;49.934;8.656;2023-03-23T09:58:35;15.30;99.90
24560;DHT22;12727;49.934;8.656;2023-03-23T10:01:21;15.50;99.90
24560;DHT22;12727;49.934;8.656;2023-03-23T10:03:48;15.60;99.90
24560;DHT22;12727;49.934;8.656;2023-03-23T10:06:17;16.10;99.90
24560;DHT22;12727;49.934;8.656;2023-03-23T10:08:47;16.10;99.90
24560;DHT22;12727;49.934;8.656;2023-03-23T10:14:23;15.50;99.90
24560;DHT22;12727;49.934;8.656;2023-03-23T10:22:12;15.00;99.90
24560;DHT22;12727;49.934;8.656;2023-03-23T10:30:40;14.60;99.90
24560;DHT22;12727;49.934;8.656;2023-03-23T10:33:25;14.40;99.90
24560;DHT22;12727;49.934;8.656;2023-03-23T10:36:07;14.50;99.90
24560;DHT22;12727;49.934;8.656;2023-03-23T10:38:45;14.40;99.90
24560;DHT22;12727;49.934;8.656;2023-03-23T10:41:15;14.30;99.90
24560;DHT22;12727;49.934;8.656;2023-03-23T10:43:42;14.10;99.90
24560;DHT22;12727;49.934;8.656;2023-03-23T10:48:58;14.00;99.90
24560;DHT22;12727;49.934;8.656;2023-03-23T10:51:36;14.10;99.90
24560;DHT22;12727;49.934;8.656;2023-03-23T10:54:04;14.20;99.90
24560;DHT22;12727;49.934;8.656;2023-03-23T10:56:43;14.20;99.90
24560;DHT22;12727;49.934;8.656;2023-03-23T10:59:25;14.30;99.90
24560;DHT22;12727;49.934;8.656;2023-03-23T11:01:53;14.40;99.90
24560;DHT22;12727;49.934;8.656;2023-03-23T11:04:20;14.40;99.90
24560;DHT22;12727;49.934;8.656;2023-03-23T11:06:51;14.30;99.90
24560;DHT22;12727;49.934;8.656;2023-03-23T11:09:20;14.30;99.90
24560;DHT22;12727;49.934;8.656;2023-03-23T11:11:54;14.30;99.90
24560;DHT22;12727;49.934;8.656;2023-03-23T11:14:35;14.40;99.90
24560;DHT22;12727;49.934;8.656;2023-03-23T11:17:18;14.40;99.90
24560;DHT22;12727;49.934;8.656;2023-03-23T11:19:45;14.40;99.90
24560;DHT22;12727;49.934;8.656;2023-03-23T11:22:28;14.40;99.90
24560;DHT22;12727;49.934;8.656;2023-03-23T11:25:02;14.40;99.90
24560;DHT22;12727;49.934;8.656;2023-03-23T11:27:28;14.30;99.90
24560;DHT22;12727;49.934;8.656;2023-03-23T11:29:56;14.20;99.90
24560;DHT22;12727;49.934;8.656;2023-03-23T11:32:28;14.20;99.90
24560;DHT22;12727;49.934;8.656;2023-03-23T11:34:57;14.30;99.90
24560;DHT22;12727;49.934;8.656;2023-03-23T11:37:38;14.50;99.90
24560;DHT22;12727;49.934;8.656;2023-03-23T11:45:35;14.70;99.90
24560;DHT22;12727;49.934;8.656;2023-03-23T11:51:13;14.50;99.90
24560;DHT22;12727;49.934;8.656;2023-03-23T11:53:45;14.50;99.90
24560;DHT22;12727;49.934;8.656;2023-03-23T11:56:25;14.40;99.90
24560;DHT22;12727;49.934;8.656;2023-03-23T11:58:54;14.30;99.90
24560;DHT22;12727;49.934;8.656;2023-03-23T12:01:46;14.20;99.90
24560;DHT22;12727;49.934;8.656;2023-03-23T12:04:33;14.20;99.90
24560;DHT22;12727;49.934;8.656;2023-03-23T12:12:45;14.10;99.90
24560;DHT22;12727;49.934;8.656;2023-03-23T12:15:28;14.10;99.90
24560;DHT22;12727;49.934;8.656;2023-03-23T12:18:18;14.10;99.90
24560;DHT22;12727;49.934;8.656;2023-03-23T12:29:16;14.20;99.90
24560;DHT22;12727;49.934;8.656;2023-03-23T12:32:07;14.20;99.90
24560;DHT22;12727;49.934;8.656;2023-03-23T12:34:46;14.40;99.90
24560;DHT22;12727;49.934;8.656;2023-03-23T12:40:35;14.60;99.90
24560;DHT22;12727;49.934;8.656;2023-03-23T12:45:58;14.80;99.90
24560;DHT22;12727;49.934;8.656;2023-03-23T12:48:45;15.00;99.90
24560;DHT22;12727;49.934;8.656;2023-03-23T12:52:10;15.20;99.90
24560;DHT22;12727;49.934;8.656;2023-03-23T12:54:39;15.50;99.90
24560;DHT22;12727;49.934;8.656;2023-03-23T12:57:16;16.00;99.90
24560;DHT22;12727;49.934;8.656;2023-03-23T12:59:53;16.00;99.90
24560;DHT22;12727;49.934;8.656;2023-03-23T13:02:37;15.90;99.90
24560;DHT22;12727;49.934;8.656;2023-03-23T13:05:29;15.80;99.90
24560;DHT22;12727;49.934;8.656;2023-03-23T13:10:45;16.10;99.90
24560;DHT22;12727;49.934;8.656;2023-03-23T13:13:24;16.10;99.90
24560;DHT22;12727;49.934;8.656;2023-03-23T13:16:04;16.00;99.90
24560;DHT22;12727;49.934;8.656;2023-03-23T13:21:32;15.90;99.90
24560;DHT22;12727;49.934;8.656;2023-03-23T13:24:03;15.90;99.90
24560;DHT22;12727;49.934;8.656;2023-03-23T13:26:30;15.70;99.90
24560;DHT22;12727;49.934;8.656;2023-03-23T13:29:00;15.60;99.90
24560;DHT22;12727;49.934;8.656;2023-03-23T13:31:32;15.60;99.90
24560;DHT22;12727;49.934;8.656;2023-03-23T13:34:10;15.60;99.90
24560;DHT22;12727;49.934;8.656;2023-03-23T13:36:39;15.50;99.90
24560;DHT22;12727;49.934;8.656;2023-03-23T13:41:48;15.50;99.90
24560;DHT22;12727;49.934;8.656;2023-03-23T13:44:18;15.40;99.90
24560;DHT22;12727;49.934;8.656;2023-03-23T13:47:03;15.30;99.90
24560;DHT22;12727;49.934;8.656;2023-03-23T13:49:32;15.20;99.90
24560;DHT22;12727;49.934;8.656;2023-03-23T13:52:14;15.30;99.90
24560;DHT22;12727;49.934;8.656;2023-03-23T13:54:44;15.40;99.90
24560;DHT22;12727;49.934;8.656;2023-03-23T13:57:36;15.50;99.90
24560;DHT22;12727;49.934;8.656;2023-03-23T14:05:41;15.10;99.90
24560;DHT22;12727;49.934;8.656;2023-03-23T14:08:22;15.20;99.90
24560;DHT22;12727;49.934;8.656;2023-03-23T14:11:11;15.10;99.90
24560;DHT22;12727;49.934;8.656;2023-03-23T14:13:42;15.10;99.90
24560;DHT22;12727;49.934;8.656;2023-03-23T14:16:17;15.10;99.90
24560;DHT22;12727;49.934;8.656;2023-03-23T14:18:59;15.00;99.90
24560;DHT22;12727;49.934;8.656;2023-03-23T14:21:35;15.00;99.90
24560;DHT22;12727;49.934;8.656;2023-03-23T14:24:15;15.00;99.90
24560;DHT22;12727;49.934;8.656;2023-03-23T14:26:40;15.00;99.90
24560;DHT22;12727;49.934;8.656;2023-03-23T14:29:10;15.10;99.90
24560;DHT22;12727;49.934;8.656;2023-03-23T14:31:36;15.10;99.90
24560;DHT22;12727;49.934;8.656;2023-03-23T14:34:05;15.00;99.90
24560;DHT22;12727;49.934;8.656;2023-03-23T14:36:35;15.00;99.90
24560;DHT22;12727;49.934;8.656;2023-03-23T14:41:30;14.80;99.90
24560;DHT22;12727;49.934;8.656;2023-03-23T14:43:57;14.80;99.90
24560;DHT22;12727;49.934;8.656;2023-03-23T14:46:24;14.80;99.90
24560;DHT22;12727;49.934;8.656;2023-03-23T14:48:51;14.80;99.90
24560;DHT22;12727;49.934;8.656;2023-03-23T14:51:18;14.70;99.90
24560;DHT22;12727;49.934;8.656;2023-03-23T14:53:44;14.70;99.90
24560;DHT22;12727;49.934;8.656;2023-03-23T14:56:18;14.70;99.90
24560;DHT22;12727;49.934;8.656;2023-03-23T14:58:49;14.60;99.90
24560;DHT22;12727;49.934;8.656;2023-03-23T15:01:23;14.60;99.90
24560;DHT22;12727;49.934;8.656;2023-03-23T15:03:57;14.60;99.90
24560;DHT22;12727;49.934;8.656;2023-03-23T15:06:27;14.60;99.90
24560;DHT22;12727;49.934;8.656;2023-03-23T15:08:56;14.60;99.90
24560;DHT22;12727;49.934;8.656;2023-03-23T15:11:30;14.50;99.90
24560;DHT22;12727;49.934;8.656;2023-03-23T15:14:00;14.50;99.90
24560;DHT22;12727;49.934;8.656;2023-03-23T15:16:33;14.50;99.90
24560;DHT22;12727;49.934;8.656;2023-03-23T15:19:04;14.60;99.90
24560;DHT22;12727;49.934;8.656;2023-03-23T15:21:38;14.60;99.90
24560;DHT22;12727;49.934;8.656;2023-03-23T15:24:33;14.70;99.90
24560;DHT22;12727;49.934;8.656;2023-03-23T15:27:13;14.60;99.90
24560;DHT22;12727;49.934;8.656;2023-03-23T15:29:53;14.60;99.90
24560;DHT22;12727;49.934;8.656;2023-03-23T15:32:28;14.70;99.90
24560;DHT22;12727;49.934;8.656;2023-03-23T15:34:54;14.70;99.90
24560;DHT22;12727;49.934;8.656;2023-03-23T15:37:43;14.70;99.90
24560;DHT22;12727;49.934;8.656;2023-03-23T15:40:20;14.60;99.90
24560;DHT22;12727;49.934;8.656;2023-03-23T15:42:47;14.70;99.90
24560;DHT22;12727;49.934;8.656;2023-03-23T15:50:51;14.70;99.90
24560;DHT22;12727;49.934;8.656;2023-03-23T15:52:58;14.70;99.90
24560;DHT22;12727;49.934;8.656;2023-03-23T15:55:28;14.60;99.90
24560;DHT22;12727;49.934;8.656;2023-03-23T15:57:56;14.60;99.90
24560;DHT22;12727;49.934;8.656;2023-03-23T16:00:24;14.60;99.90
24560;DHT22;12727;49.934;8.656;2023-03-23T16:03:03;14.60;99.90
24560;DHT22;12727;49.934;8.656;2023-03-23T16:05:29;14.50;99.90
24560;DHT22;12727;49.934;8.656;2023-03-23T16:07:55;14.40;99.90
24560;DHT22;12727;49.934;8.656;2023-03-23T16:10:23;14.30;99.90
24560;DHT22;12727;49.934;8.656;2023-03-23T16:12:50;14.40;99.90
24560;DHT22;12727;49.934;8.656;2023-03-23T16:15:17;14.40;99.90
24560;DHT22;12727;49.934;8.656;2023-03-23T16:17:43;14.40;99.90
24560;DHT22;12727;49.934;8.656;2023-03-23T16:20:19;14.40;99.90
24560;DHT22;12727;49.934;8.656;2023-03-23T16:22:45;14.40;99.90
24560;DHT22;12727;49.934;8.656;2023-03-23T16:25:12;14.40;99.90
24560;DHT22;12727;49.934;8.656;2023-03-23T16:27:39;14.30;99.90
24560;DHT22;12727;49.934;8.656;2023-03-23T16:30:16;14.30;99.90
24560;DHT22;12727;49.934;8.656;2023-03-23T16:32:42;14.20;99.90
24560;DHT22;12727;49.934;8.656;2023-03-23T16:35:08;14.20;99.90
24560;DHT22;12727;49.934;8.656;2023-03-23T16:37:34;14.20;99.90
24560;DHT22;12727;49.934;8.656;2023-03-23T16:40:01;14.10;99.90
24560;DHT22;12727;49.934;8.656;2023-03-23T16:42:27;14.00;99.90
24560;DHT22;12727;49.934;8.656;2023-03-23T16:44:53;14.00;99.90
24560;DHT22;12727;49.934;8.656;2023-03-23T16:47:19;14.00;99.90
24560;DHT22;12727;49.934;8.656;2023-03-23T16:49:50;13.90;99.90
24560;DHT22;12727;49.934;8.656;2023-03-23T16:52:16;13.90;99.90
24560;DHT22;12727;49.934;8.656;2023-03-23T16:54:41;13.80;99.90
24560;DHT22;12727;49.934;8.656;2023-03-23T16:57:07;13.90;99.90
24560;DHT22;12727;49.934;8.656;2023-03-23T16:59:32;13.80;99.90
24560;DHT22;12727;49.934;8.656;2023-03-23T17:01:58;13.80;99.90
24560;DHT22;12727;49.934;8.656;2023-03-23T17:04:28;13.70;99.90
24560;DHT22;12727;49.934;8.656;2023-03-23T17:06:54;13.70;99.90
24560;DHT22;12727;49.934;8.656;2023-03-23T17:09:19;13.70;99.90
24560;DHT22;12727;49.934;8.656;2023-03-23T17:11:45;13.70;99.90
24560;DHT22;12727;49.934;8.656;2023-03-23T17:14:10;13.70;99.90